Terminal Aerodrome Forecast
Issued by NWS Charleston, SC

Home | Current Version | Previous Version | Text Only | Print | Product List | Glossary On
Versions: 1 2 3 4 5 6 7 8 9 10 11 12 13 14 15 16 17 18 19 20
000
FTUS42 KCHS 240000 AAA
TAFSAV
TAF AMD
KSAV 240057Z 2401/2424 VRB03KT P6SM SKC
     FM240900 04007KT P6SM SKC
     FM241400 08010G17KT P6SM FEW040
     FM241900 12013G19KT P6SM SCT040=

USA.gov is the U.S. government's official web portal to all federal, state and local government web resources and services.